createdAt,value
2023-02-24T00:04:03.000Z,6.11
2023-02-24T00:08:54.870Z,5.39
2023-02-24T00:13:47.171Z,6.85
2023-02-24T00:18:38.796Z,7.23
2023-02-24T00:23:30.844Z,3.75
2023-02-24T00:28:22.580Z,4.71
2023-02-24T00:33:14.301Z,7.09
2023-02-24T00:38:06.108Z,5.82
2023-02-24T00:42:58.305Z,6.90
2023-02-24T00:47:50.318Z,6.88
2023-02-24T00:52:43.325Z,6.79
2023-02-24T00:57:35.498Z,6.54
2023-02-24T01:02:27.329Z,6.64
2023-02-24T01:07:18.993Z,5.13
2023-02-24T01:12:38.100Z,4.50
2023-02-24T01:17:29.942Z,6.00
2023-02-24T01:22:21.711Z,6.26
2023-02-24T01:27:17.688Z,3.07
2023-02-24T01:32:19.685Z,3.79
2023-02-24T01:37:16.267Z,5.22
2023-02-24T01:42:16.375Z,5.97
2023-02-24T01:47:08.105Z,4.44
2023-02-24T01:52:04.540Z,6.22
2023-02-24T01:56:57.533Z,6.41
2023-02-24T02:01:53.362Z,6.17
2023-02-24T02:06:48.338Z,6.36
2023-02-24T02:11:40.254Z,4.58
2023-02-24T02:16:44.919Z,5.78
2023-02-24T02:21:57.086Z,6.09
2023-02-24T02:27:02.007Z,6.35
2023-02-24T02:32:24.423Z,6.30
2023-02-24T02:37:25.496Z,6.28
2023-02-24T02:42:17.322Z,6.28
2023-02-24T02:47:18.626Z,5.39
2023-02-24T02:52:21.627Z,5.60
2023-02-24T02:57:20.507Z,5.63
2023-02-24T03:02:15.065Z,5.53
2023-02-24T03:07:10.272Z,5.42
2023-02-24T03:12:17.503Z,5.54
2023-02-24T03:17:21.699Z,5.98
2023-02-24T03:22:17.807Z,5.97
2023-02-24T03:27:20.107Z,5.67
2023-02-24T03:32:27.127Z,4.44
2023-02-24T03:37:28.304Z,4.99
2023-02-24T03:42:23.037Z,5.45
2023-02-24T03:47:17.053Z,5.15
2023-02-24T03:52:23.057Z,4.50
2023-02-24T03:57:34.774Z,5.30
2023-02-24T04:02:31.514Z,5.50
2023-02-24T04:07:45.505Z,5.37
2023-02-24T04:12:47.106Z,5.99
2023-02-24T04:17:52.622Z,5.83
2023-02-24T04:22:51.632Z,5.68
2023-02-24T04:27:45.612Z,4.66
2023-02-24T04:32:44.404Z,5.23
2023-02-24T04:37:37.378Z,5.21
2023-02-24T04:42:29.096Z,2.77
2023-02-24T04:47:21.075Z,5.45
2023-02-24T04:52:15.281Z,4.05
2023-02-24T04:57:08.039Z,4.95
2023-02-24T05:02:01.669Z,5.33
2023-02-24T05:06:57.438Z,4.66
2023-02-24T05:11:51.654Z,5.28
2023-02-24T05:16:44.764Z,2.36
2023-02-24T05:21:36.496Z,4.57
2023-02-24T05:26:32.093Z,3.26
2023-02-24T05:31:26.972Z,4.66
2023-02-24T05:36:19.232Z,4.40
2023-02-24T05:41:17.134Z,4.93
2023-02-24T05:46:08.876Z,2.11
2023-02-24T05:51:07.919Z,4.72
2023-02-24T05:56:05.592Z,4.56
2023-02-24T06:00:58.705Z,2.12
2023-02-24T06:05:54.326Z,1.42
2023-02-24T06:10:47.396Z,2.84
2023-02-24T06:15:39.063Z,3.43
2023-02-24T06:20:32.942Z,3.08
2023-02-24T06:25:26.510Z,3.97
2023-02-24T06:30:18.971Z,3.74
2023-02-24T06:35:12.791Z,3.96
2023-02-24T06:40:15.696Z,3.95
2023-02-24T06:45:08.333Z,2.44
2023-02-24T06:50:00.004Z,2.33
2023-02-24T06:54:52.361Z,3.69
2023-02-24T06:59:44.216Z,3.77
2023-02-24T07:04:43.641Z,5.35
2023-02-24T07:09:35.861Z,5.56
2023-02-24T07:14:30.965Z,5.57
2023-02-24T07:19:32.612Z,3.15
2023-02-24T07:24:32.970Z,4.17
2023-02-24T07:29:25.807Z,5.29
2023-02-24T07:34:23.481Z,6.08
2023-02-24T07:39:16.851Z,5.61
2023-02-24T07:44:09.528Z,5.56
2023-02-24T07:49:03.015Z,4.84
2023-02-24T07:53:57.103Z,6.13
2023-02-24T07:58:57.729Z,3.37
2023-02-24T08:03:56.050Z,6.36
2023-02-24T08:08:59.948Z,6.15
2023-02-24T08:13:52.198Z,5.69
2023-02-24T08:18:49.182Z,6.89
2023-02-24T08:23:44.725Z,6.02
2023-02-24T08:28:38.283Z,5.74
2023-02-24T08:33:30.209Z,6.85
2023-02-24T08:38:25.933Z,7.69
2023-02-24T08:43:34.846Z,7.44
2023-02-24T08:48:38.853Z,7.38
2023-02-24T08:53:31.620Z,6.77
2023-02-24T08:58:27.119Z,5.30
2023-02-24T09:03:28.834Z,6.69
2023-02-24T09:08:24.102Z,7.38
2023-02-24T09:13:15.800Z,6.96
2023-02-24T09:18:07.510Z,7.81
2023-02-24T09:23:08.969Z,7.08
2023-02-24T09:28:17.402Z,7.93
2023-02-24T09:33:18.943Z,7.59
2023-02-24T09:38:10.724Z,7.96
2023-02-24T09:43:11.015Z,8.22
2023-02-24T09:48:12.812Z,8.88
2023-02-24T09:53:17.417Z,8.99
2023-02-24T09:58:43.006Z,8.43
2023-02-24T10:03:48.020Z,6.04
2023-02-24T10:08:49.796Z,8.20
2023-02-24T10:13:53.555Z,8.78
2023-02-24T10:19:01.322Z,8.67
2023-02-24T10:24:08.017Z,8.84
2023-02-24T10:29:09.099Z,8.00
2023-02-24T10:34:06.295Z,8.37
2023-02-24T10:38:58.085Z,8.75
2023-02-24T10:43:56.036Z,8.87
2023-02-24T10:48:52.825Z,8.02
2023-02-24T10:53:53.194Z,8.10
2023-02-24T10:58:45.026Z,8.18
2023-02-24T11:04:00.871Z,7.52
2023-02-24T11:09:18.222Z,8.13
2023-02-24T11:14:35.739Z,8.09
2023-02-24T11:19:31.115Z,5.66
2023-02-24T11:24:23.119Z,7.66
2023-02-24T11:29:45.141Z,7.75
2023-02-24T11:35:26.586Z,7.57
2023-02-24T11:40:25.772Z,7.45
2023-02-24T11:45:25.483Z,7.30
2023-02-24T11:50:26.149Z,6.96
2023-02-24T11:55:43.070Z,6.97
2023-02-24T12:00:39.024Z,6.08
2023-02-24T12:05:39.295Z,6.15
2023-02-24T12:11:07.103Z,7.00
2023-02-24T12:16:11.754Z,6.48
2023-02-24T12:21:12.706Z,6.98
2023-02-24T12:26:19.971Z,6.88
2023-02-24T12:31:33.597Z,6.95
2023-02-24T12:36:37.263Z,7.11
2023-02-24T12:41:54.685Z,7.20
2023-02-24T12:46:57.403Z,5.05
2023-02-24T12:51:56.943Z,6.51
2023-02-24T12:56:59.864Z,7.05
2023-02-24T13:02:05.138Z,5.24
2023-02-24T13:07:21.819Z,6.87
2023-02-24T13:12:38.316Z,7.02
2023-02-24T13:17:30.083Z,6.22
2023-02-24T13:22:26.949Z,6.78
2023-02-24T13:27:24.550Z,6.65
2023-02-24T13:32:36.906Z,6.58
2023-02-24T13:37:36.346Z,6.47
2023-02-24T13:42:30.386Z,6.52
2023-02-24T13:47:53.411Z,5.98
2023-02-24T13:53:15.310Z,5.29
2023-02-24T13:58:46.971Z,5.34
2023-02-24T14:03:41.686Z,5.82
2023-02-24T14:08:43.948Z,4.26
2023-02-24T14:13:36.770Z,5.63
2023-02-24T14:18:29.790Z,6.42
2023-02-24T14:23:31.620Z,5.95
2023-02-24T14:28:28.670Z,5.53
2023-02-24T14:33:42.016Z,3.15
2023-02-24T14:38:36.950Z,6.33
2023-02-24T14:43:29.663Z,5.07
2023-02-24T14:48:30.279Z,6.47
2023-02-24T14:53:23.587Z,6.46
2023-02-24T14:58:20.656Z,5.94
2023-02-24T15:03:30.392Z,4.75
2023-02-24T15:08:37.404Z,6.57
2023-02-24T15:13:42.264Z,5.94
2023-02-24T15:18:33.996Z,4.78
2023-02-24T15:23:36.979Z,6.19
2023-02-24T15:28:34.484Z,3.49
2023-02-24T15:33:32.840Z,5.75
2023-02-24T15:38:29.447Z,4.69
2023-02-24T15:43:56.122Z,6.16
2023-02-24T15:48:50.848Z,4.82
2023-02-24T15:53:42.562Z,6.02
2023-02-24T15:58:34.772Z,5.32
2023-02-24T16:03:26.504Z,5.29
2023-02-24T16:08:20.821Z,6.18
2023-02-24T16:13:19.068Z,3.97
2023-02-24T16:18:20.893Z,5.68
2023-02-24T16:23:14.805Z,4.85
2023-02-24T16:28:06.518Z,4.19
2023-02-24T16:33:00.386Z,5.45
2023-02-24T16:37:52.288Z,5.06
2023-02-24T16:42:43.896Z,2.20
2023-02-24T16:47:35.593Z,5.48
2023-02-24T16:52:28.812Z,4.69
2023-02-24T16:57:25.413Z,5.19
2023-02-24T17:02:22.165Z,5.90
2023-02-24T17:07:16.087Z,3.54
2023-02-24T17:12:11.247Z,4.75
2023-02-24T17:17:03.246Z,5.75
2023-02-24T17:21:55.009Z,5.07
2023-02-24T17:26:47.009Z,5.52
2023-02-24T17:31:39.093Z,5.39
2023-02-24T17:36:30.861Z,5.15
2023-02-24T17:41:24.097Z,5.97
2023-02-24T17:46:15.778Z,3.15
2023-02-24T17:51:07.450Z,2.78
2023-02-24T17:56:05.032Z,5.27
2023-02-24T18:00:57.159Z,5.05
2023-02-24T18:05:48.758Z,5.66
2023-02-24T18:10:40.451Z,5.68
2023-02-24T18:15:32.072Z,5.45
2023-02-24T18:20:24.156Z,4.38
2023-02-24T18:25:15.907Z,4.60
2023-02-24T18:30:10.103Z,2.88
2023-02-24T18:35:01.864Z,4.13
2023-02-24T18:39:53.724Z,5.01
2023-02-24T18:44:45.385Z,5.83
2023-02-24T18:49:37.336Z,5.95
2023-02-24T18:54:28.989Z,2.02
2023-02-24T18:59:20.649Z,5.27
2023-02-24T19:04:13.355Z,5.67
2023-02-24T19:09:11.013Z,6.02
2023-02-24T19:14:03.326Z,6.09
2023-02-24T19:18:56.633Z,5.74
2023-02-24T19:23:48.838Z,5.16
2023-02-24T19:28:40.516Z,4.80
2023-02-24T19:33:32.121Z,2.54
2023-02-24T19:38:23.821Z,1.33
2023-02-24T19:43:15.544Z,4.27
2023-02-24T19:48:07.606Z,4.58
2023-02-24T19:52:59.276Z,2.51
2023-02-24T19:57:54.861Z,3.71
2023-02-24T20:02:46.638Z,3.69
2023-02-24T20:07:38.712Z,4.46
2023-02-24T20:12:30.414Z,4.46
2023-02-24T20:17:22.236Z,4.40
2023-02-24T20:22:13.890Z,4.89
2023-02-24T20:27:05.750Z,3.76
2023-02-24T20:31:57.550Z,3.63
2023-02-24T20:36:49.433Z,4.89
2023-02-24T20:41:41.507Z,4.70
2023-02-24T20:46:33.284Z,4.06
2023-02-24T20:51:26.392Z,4.66
2023-02-24T20:56:20.620Z,3.02
2023-02-24T21:01:15.445Z,4.30
2023-02-24T21:06:10.662Z,2.85
2023-02-24T21:11:02.742Z,1.97
2023-02-24T21:15:55.449Z,4.42
2023-02-24T21:20:47.274Z,4.87
2023-02-24T21:25:39.641Z,2.14
2023-02-24T21:30:31.448Z,4.75
2023-02-24T21:35:23.216Z,3.99
2023-02-24T21:40:17.595Z,4.20
2023-02-24T21:45:14.017Z,3.67
2023-02-24T21:50:07.390Z,5.02
2023-02-24T21:54:59.537Z,2.14
2023-02-24T21:59:51.126Z,4.52
2023-02-24T22:04:46.779Z,4.37
2023-02-24T22:09:38.458Z,1.68
2023-02-24T22:14:31.444Z,4.09
2023-02-24T22:19:23.439Z,3.90
2023-02-24T22:24:17.662Z,3.80
2023-02-24T22:29:09.807Z,4.45
2023-02-24T22:34:02.304Z,1.97
2023-02-24T22:38:59.236Z,4.89
2023-02-24T22:43:51.784Z,3.98
